This is the latest recevied weather packets stored in our database for station/object WG7B. If no packets are shown the sender has not sent any weather packets the latest 10 day(s).
| Time | Temp. | Humidity | Pressure | Rain* | Wind** | Luminosity | Snow |
|---|---|---|---|---|---|---|---|
| 1777322433 | 28.33° C | 18% | 1011.4 hPa | 0 mm | - | - | - |
| 1777318238 | 27.22° C | 21% | 1012.4 hPa | 0 mm | - | - | - |
| 1777312229 | 26.11° C | 25% | 1013.3 hPa | 0 mm | - | - | - |
| 1777310435 | 25.56° C | 26% | 1013.5 hPa | 0 mm | - | - | - |
| 1777306827 | 22.22° C | 29% | 1013.2 hPa | 0 mm | - | - | - |
| 1777304448 | 20° C | 33% | 1013.1 hPa | 0 mm | - | - | - |
| 1777301426 | 17.22° C | 36% | 1013 hPa | 0 mm | - | - | - |
| 1777296629 | 15° C | 39% | 1012.3 hPa | 0 mm | - | - | - |
| 1777288836 | 15.56° C | 36% | 1011.4 hPa | 0 mm | - | - | - |
| 1777287626 | 15.56° C | 35% | 1011.3 hPa | 0 mm | - | - | - |
| 1777282833 | 16.11° C | 35% | 1011 hPa | 0 mm | - | - | - |
| 1777269626 | 19.44° C | 32% | 1010.8 hPa | 0 mm | - | - | - |
| 1777268417 | 20° C | 32% | 1010.6 hPa | 0 mm | - | - | - |
| 1777259421 | 21.67° C | 29% | 1009.6 hPa | 0 mm | - | - | - |
| 1777258835 | 21.67° C | 28% | 1009.6 hPa | 0 mm | - | - | - |
| 1777252223 | 24.44° C | 26% | 1008.5 hPa | 0 mm | - | - | - |
| 1777246835 | 26.67° C | 24% | 1008.5 hPa | 0 mm | - | - | - |
| 1777242644 | 25.56° C | 25% | 1008.4 hPa | 0 mm | - | - | - |
| 1777242017 | 26.11° C | 24% | 1008.7 hPa | 0 mm | - | - | - |
| 1777240828 | 26.11° C | 26% | 1008.6 hPa | 0 mm | - | - | - |
| 1777236032 | 26.67° C | 25% | 1009.4 hPa | 0 mm | - | - | - |
| 1777235428 | 27.22° C | 24% | 1009.5 hPa | 0 mm | - | - | - |
| 1777234221 | 26.11° C | 25% | 1009.6 hPa | 0 mm | - | - | - |
| 1777230615 | 26.11° C | 26% | 1010.2 hPa | 0 mm | - | - | - |
| 1777229428 | 26.11° C | 27% | 1010.1 hPa | 0 mm | - | - | - |
* Rain latest hour (hover to see other rain measurements)
** Current wind speed in m/s (hover to see current wind gust speed)